Time;durP1;ratioP1;P1;durP2;ratioP2;P2;SDS_P1;SDS_P2;PMS_P1;PMS_P2;Temp;Humidity;BMP_temperature;BMP_pressure;BME280_temperature;BME280_humidity;BME280_pressure;Samples;Min_cycle;Max_cycle;Signal;HPM_P1;HPM_P2
2022/03/08 00:01:28;;;;;;;;;;;;;;;4.76;100.00;99751.19;5010042;28;19921;-89
2022/03/08 00:03:53;;;;;;;;;;;;;;;5.01;100.00;99745.31;5016100;28;20354;-86
2022/03/08 00:06:19;;;;;;;;;;;;;;;5.17;100.00;99740.25;4986108;28;19925;-88
2022/03/08 00:08:44;;;;;;;;;;;;;;;5.48;98.76;99745.41;4984566;28;20277;-86
2022/03/08 00:11:09;;;;;;;;;;;;;;;5.63;95.96;99736.03;5000017;28;20005;-87
2022/03/08 00:13:35;;;;;;;;;;;;;;;4.95;97.58;99740.22;5003856;28;19928;-88
2022/03/08 00:16:00;;;;;;;;;;;;;;;4.57;99.19;99747.72;4992472;28;19974;-86
2022/03/08 00:18:25;;;;;;;;;;;;;;;4.52;100.00;99751.97;5023715;28;19929;-85
2022/03/08 00:20:51;;;;;;;;;;;;;;;4.88;100.00;99751.25;5002512;28;19923;-85
2022/03/08 00:23:16;;;;;;;;;;;;;;;4.51;100.00;99753.66;5003641;28;19935;-85
2022/03/08 00:25:41;;;;;;;;;;;;;;;3.34;100.00;99757.09;5002749;28;20047;-87
2022/03/08 00:28:07;;;;;;;;;;;;;;;3.62;100.00;99753.06;5001956;28;19925;-88
2022/03/08 00:30:32;;;;;;;;;;;;;;;4.00;100.00;99744.88;5017742;28;19928;-88
2022/03/08 00:32:57;;;;;;;;;;;;;;;4.01;100.00;99740.63;4987036;28;19925;-87
2022/03/08 00:35:23;;;;;;;;;;;;;;;5.06;100.00;99732.56;5019002;28;19917;-87
2022/03/08 00:37:49;;;;;;;;;;;;;;;4.37;100.00;99739.97;4986515;28;19917;-87
2022/03/08 00:40:15;;;;;;;;;;;;;;;3.97;100.00;99744.88;4983460;28;19913;-87
2022/03/08 00:42:40;;;;;;;;;;;;;;;3.66;100.00;99747.16;4998469;28;20067;-87
2022/03/08 00:45:09;;;;;;;;;;;;;;;4.78;100.00;99736.75;4983667;28;20441;-87
2022/03/08 00:47:41;;;;;;;;;;;;;;;4.35;100.00;99737.41;5009685;28;19925;-88
2022/03/08 00:50:08;;;;;;;;;;;;;;;4.06;100.00;99734.72;5018344;28;20363;-87
2022/03/08 00:52:33;;;;;;;;;;;;;;;3.75;100.00;99733.66;4984565;28;19924;-88
2022/03/08 00:54:59;;;;;;;;;;;;;;;3.49;100.00;99736.84;5017952;28;19918;-86
2022/03/08 00:57:24;;;;;;;;;;;;;;;3.70;100.00;99723.44;5018065;28;19917;-85
2022/03/08 00:59:49;;;;;;;;;;;;;;;3.88;100.00;99722.72;5004439;28;19966;-88
2022/03/08 01:02:14;;;;;;;;;;;;;;;4.49;100.00;99709.41;5018050;28;19917;-88
2022/03/08 01:04:40;;;;;;;;;;;;;;;4.92;100.00;99699.34;5022737;28;19975;-88
2022/03/08 01:07:06;;;;;;;;;;;;;;;4.72;100.00;99701.00;5000328;28;19922;-87
2022/03/08 01:09:31;;;;;;;;;;;;;;;4.71;100.00;99699.31;5025147;28;20095;-87
2022/03/08 01:11:56;;;;;;;;;;;;;;;4.31;100.00;99686.41;5003705;28;20550;-87
2022/03/08 01:14:22;;;;;;;;;;;;;;;4.24;100.00;99690.59;5015940;28;19928;-87
2022/03/08 01:16:47;;;;;;;;;;;;;;;4.50;100.00;99682.25;5018939;28;20016;-88
2022/03/08 01:19:13;;;;;;;;;;;;;;;4.28;100.00;99679.59;4982474;28;19944;-88
2022/03/08 01:21:38;;;;;;;;;;;;;;;3.96;100.00;99682.81;5018849;28;20590;-87
2022/03/08 01:24:03;;;;;;;;;;;;;;;3.73;100.00;99681.84;5007794;28;20304;-88
2022/03/08 01:26:29;;;;;;;;;;;;;;;3.97;100.00;99676.91;5007559;28;19925;-86
2022/03/08 01:28:55;;;;;;;;;;;;;;;4.10;100.00;99675.25;5016907;28;19925;-86
2022/03/08 01:31:21;;;;;;;;;;;;;;;4.47;100.00;99667.78;5019168;28;20384;-86
2022/03/08 01:33:46;;;;;;;;;;;;;;;4.84;100.00;99665.31;5002732;28;19924;-87
2022/03/08 01:36:12;;;;;;;;;;;;;;;4.79;100.00;99664.47;5009017;28;20013;-87
2022/03/08 01:38:37;;;;;;;;;;;;;;;5.00;100.00;99664.50;5033082;28;19952;-86
2022/03/08 01:41:02;;;;;;;;;;;;;;;4.98;100.00;99666.19;5009497;28;19945;-87
2022/03/08 01:43:28;;;;;;;;;;;;;;;5.08;100.00;99663.66;5016104;28;19925;-87
2022/03/08 01:45:53;;;;;;;;;;;;;;;4.76;100.00;99661.91;5003391;28;20392;-87
2022/03/08 01:48:18;;;;;;;;;;;;;;;5.10;100.00;99654.28;5023075;28;19927;-87
2022/03/08 01:50:44;;;;;;;;;;;;;;;5.08;100.00;99648.31;5000471;28;19913;-87
2022/03/08 01:53:09;;;;;;;;;;;;;;;4.26;100.00;99652.38;5032700;28;19941;-86
2022/03/08 01:55:34;;;;;;;;;;;;;;;4.02;100.00;99651.44;5018282;28;20018;-86
2022/03/08 01:58:00;;;;;;;;;;;;;;;4.31;100.00;99653.25;5018136;28;20291;-88
2022/03/08 02:00:26;;;;;;;;;;;;;;;4.27;100.00;99647.31;5014184;28;19925;-87
2022/03/08 02:02:52;;;;;;;;;;;;;;;4.21;100.00;99647.28;5001852;28;19940;-88
2022/03/08 02:05:17;;;;;;;;;;;;;;;4.36;100.00;99656.69;5023098;28;20316;-87
2022/03/08 02:07:42;;;;;;;;;;;;;;;4.53;100.00;99655.03;5018287;28;19921;-88
2022/03/08 02:10:08;;;;;;;;;;;;;;;4.60;100.00;99649.09;4998140;28;20316;-88
2022/03/08 02:12:33;;;;;;;;;;;;;;;4.39;100.00;99656.69;4983052;28;20022;-87
2022/03/08 02:14:59;;;;;;;;;;;;;;;4.86;100.00;99650.88;5000705;28;20372;-87
2022/03/08 02:17:24;;;;;;;;;;;;;;;4.87;100.00;99650.00;5001454;28;19923;-87
2022/03/08 02:19:49;;;;;;;;;;;;;;;4.81;100.00;99647.44;5021124;28;19932;-85
2022/03/08 02:22:14;;;;;;;;;;;;;;;4.85;100.00;99644.03;5031658;28;19961;-87
2022/03/08 02:24:40;;;;;;;;;;;;;;;4.51;100.00;99659.28;5015474;28;19923;-87
2022/03/08 02:27:05;;;;;;;;;;;;;;;4.83;100.00;99648.28;5000923;28;19944;-87
2022/03/08 02:29:31;;;;;;;;;;;;;;;4.52;100.00;99644.84;5015485;28;20028;-85
2022/03/08 02:31:56;;;;;;;;;;;;;;;4.53;100.00;99652.47;5002808;28;19967;-87
2022/03/08 02:34:21;;;;;;;;;;;;;;;4.37;100.00;99658.38;5015844;28;19918;-86
2022/03/08 02:37:05;;;;;;;;;;;;;;;3.52;100.00;99660.47;4984907;28;19924;-87
2022/03/08 02:39:30;;;;;;;;;;;;;;;4.24;100.00;99651.53;4990804;28;20566;-85
2022/03/08 02:41:55;;;;;;;;;;;;;;;4.57;100.00;99649.09;5002025;28;20368;-87
2022/03/08 02:44:21;;;;;;;;;;;;;;;4.66;100.00;99644.88;4999186;28;19957;-86
2022/03/08 02:46:46;;;;;;;;;;;;;;;4.35;100.00;99637.13;5016923;28;19960;-87
2022/03/08 02:49:11;;;;;;;;;;;;;;;3.46;100.00;99659.56;5001308;28;19980;-87
2022/03/08 02:51:37;;;;;;;;;;;;;;;3.30;100.00;99659.44;5031899;28;19917;-87
2022/03/08 02:54:02;;;;;;;;;;;;;;;3.84;100.00;99648.78;4981384;28;21088;-84
2022/03/08 02:56:27;;;;;;;;;;;;;;;4.21;100.00;99636.22;5017026;28;19926;-86
2022/03/08 02:58:52;;;;;;;;;;;;;;;3.89;100.00;99639.47;5015890;28;19921;-87
2022/03/08 03:01:18;;;;;;;;;;;;;;;3.57;100.00;99645.22;5015610;28;19948;-87
2022/03/08 03:03:43;;;;;;;;;;;;;;;3.92;100.00;99644.56;5001088;28;20009;-85
2022/03/08 03:06:08;;;;;;;;;;;;;;;4.37;100.00;99632.88;5001234;28;20020;-87
2022/03/08 03:08:34;;;;;;;;;;;;;;;4.52;100.00;99630.38;5004261;28;19963;-88
2022/03/08 03:10:59;;;;;;;;;;;;;;;4.66;100.00;99639.78;5020098;28;20351;-87
2022/03/08 03:13:24;;;;;;;;;;;;;;;4.78;100.00;99629.56;4993454;28;19924;-86
2022/03/08 03:15:50;;;;;;;;;;;;;;;4.37;100.00;99632.88;5005494;28;19921;-86
2022/03/08 03:18:15;;;;;;;;;;;;;;;4.32;100.00;99640.50;4989983;28;19949;-86
2022/03/08 03:20:40;;;;;;;;;;;;;;;4.12;100.00;99635.34;5020696;28;19920;-86
2022/03/08 03:23:06;;;;;;;;;;;;;;;4.00;100.00;99635.28;5008633;28;19924;-88
2022/03/08 03:25:31;;;;;;;;;;;;;;;4.09;100.00;99639.59;5013148;23;19929;-86
2022/03/08 03:27:56;;;;;;;;;;;;;;;4.46;100.00;99632.06;5002286;28;20016;-88
2022/03/08 03:30:22;;;;;;;;;;;;;;;4.45;100.00;99626.13;5007044;28;20208;-83
2022/03/08 03:32:47;;;;;;;;;;;;;;;4.52;100.00;99630.38;5008313;28;19917;-84
2022/03/08 03:35:12;;;;;;;;;;;;;;;4.56;100.00;99633.78;5004673;28;19965;-83
2022/03/08 03:37:38;;;;;;;;;;;;;;;4.51;100.00;99636.31;5005549;28;20013;-84
2022/03/08 03:40:04;;;;;;;;;;;;;;;4.43;100.00;99638.00;5005463;28;19925;-83
2022/03/08 03:42:29;;;;;;;;;;;;;;;4.22;100.00;99633.69;4988090;28;20385;-85
2022/03/08 03:44:54;;;;;;;;;;;;;;;3.73;100.00;99639.38;4988437;28;19922;-86
2022/03/08 03:47:20;;;;;;;;;;;;;;;4.00;100.00;99630.19;4990875;28;20025;-85
2022/03/08 03:49:45;;;;;;;;;;;;;;;4.01;100.00;99636.13;5002024;28;19925;-84
2022/03/08 03:52:10;;;;;;;;;;;;;;;4.21;100.00;99621.78;4988757;28;19922;-84
2022/03/08 03:54:36;;;;;;;;;;;;;;;4.28;100.00;99633.69;5003875;28;20504;-84
2022/03/08 03:57:01;;;;;;;;;;;;;;;4.12;100.00;99637.88;5005206;28;19960;-84
2022/03/08 03:59:27;;;;;;;;;;;;;;;4.05;100.00;99635.31;5002883;28;20381;-83
2022/03/08 04:01:52;;;;;;;;;;;;;;;4.10;100.00;99628.53;4980162;28;19917;-84
2022/03/08 04:04:17;;;;;;;;;;;;;;;4.12;100.00;99622.59;5013619;28;19917;-85
2022/03/08 04:06:43;;;;;;;;;;;;;;;4.25;100.00;99622.66;5013368;28;19924;-87
2022/03/08 04:09:08;;;;;;;;;;;;;;;4.26;100.00;99620.09;5011312;28;20304;-84
2022/03/08 04:11:33;;;;;;;;;;;;;;;4.30;100.00;99626.06;5012452;28;19961;-84
2022/03/08 04:13:59;;;;;;;;;;;;;;;4.03;100.00;99631.91;5011076;28;19923;-84
2022/03/08 04:16:24;;;;;;;;;;;;;;;3.65;100.00;99630.00;4980190;28;19985;-85
2022/03/08 04:18:49;;;;;;;;;;;;;;;4.07;100.00;99619.19;5008450;28;19922;-85
2022/03/08 04:21:15;;;;;;;;;;;;;;;3.96;100.00;99615.72;5003947;28;19924;-85
2022/03/08 04:23:40;;;;;;;;;;;;;;;3.59;100.00;99617.22;4990779;28;19921;-85
2022/03/08 04:26:05;;;;;;;;;;;;;;;3.50;100.00;99616.31;5006121;28;19926;-85
2022/03/08 04:28:30;;;;;;;;;;;;;;;3.43;100.00;99619.69;4994746;28;19925;-86
2022/03/08 04:30:56;;;;;;;;;;;;;;;3.99;100.00;99608.09;4997364;28;20415;-85
2022/03/08 04:33:21;;;;;;;;;;;;;;;4.05;100.00;99605.56;4990009;28;20373;-84
2022/03/08 04:35:47;;;;;;;;;;;;;;;4.25;100.00;99612.44;5006457;28;19968;-85
2022/03/08 04:38:12;;;;;;;;;;;;;;;4.26;100.00;99609.03;5007154;28;19921;-85
2022/03/08 04:40:37;;;;;;;;;;;;;;;3.93;100.00;99620.81;4975076;28;19922;-85
2022/03/08 04:43:02;;;;;;;;;;;;;;;3.85;100.00;99617.38;5006613;28;20004;-85
2022/03/08 04:45:28;;;;;;;;;;;;;;;2.80;100.00;99636.97;5005814;28;19926;-85
2022/03/08 04:47:53;;;;;;;;;;;;;;;2.75;100.00;99643.69;5006080;28;19921;-83
2022/03/08 04:50:18;;;;;;;;;;;;;;;3.02;100.00;99647.34;5007811;28;19930;-83
2022/03/08 04:52:44;;;;;;;;;;;;;;;3.32;100.00;99637.41;5007254;28;20009;-83
2022/03/08 04:55:09;;;;;;;;;;;;;;;3.09;100.00;99642.31;5007519;28;19917;-85
2022/03/08 04:57:35;;;;;;;;;;;;;;;3.63;100.00;99637.63;5007799;28;20004;-83
2022/03/08 05:00:00;;;;;;;;;;;;;;;4.09;100.00;99632.78;5005192;28;19960;-83
2022/03/08 05:02:25;;;;;;;;;;;;;;;4.00;100.00;99632.75;4998372;28;19914;-83
2022/03/08 05:04:51;;;;;;;;;;;;;;;3.82;100.00;99645.38;5008937;28;20006;-83
2022/03/08 05:07:16;;;;;;;;;;;;;;;3.82;100.00;99642.84;5008657;28;20990;-82
2022/03/08 05:09:41;;;;;;;;;;;;;;;3.70;100.00;99639.38;5002670;28;19929;-88
2022/03/08 05:12:08;;;;;;;;;;;;;;;3.09;100.00;99646.56;5006322;28;19972;-85
2022/03/08 05:14:33;;;;;;;;;;;;;;;2.62;100.00;99660.53;4975212;28;19940;-84
2022/03/08 05:16:59;;;;;;;;;;;;;;;3.13;100.00;99643.22;4981754;28;19925;-86
2022/03/08 05:19:24;;;;;;;;;;;;;;;3.23;100.00;99639.88;5006126;28;19918;-85
2022/03/08 05:21:49;;;;;;;;;;;;;;;3.09;100.00;99639.78;5004957;28;20304;-87
2022/03/08 05:24:15;;;;;;;;;;;;;;;2.51;100.00;99637.53;4998031;28;19948;-85
2022/03/08 05:26:40;;;;;;;;;;;;;;;2.23;100.00;99640.59;5005644;28;19959;-85
2022/03/08 05:29:06;;;;;;;;;;;;;;;1.75;100.00;99636.59;5003867;28;19921;-85
2022/03/08 05:31:31;;;;;;;;;;;;;;;2.37;100.00;99635.66;4982007;28;19995;-84
2022/03/08 05:33:56;;;;;;;;;;;;;;;2.34;100.00;99633.94;4994649;28;20353;-84
2022/03/08 05:36:21;;;;;;;;;;;;;;;2.03;100.00;99636.13;5004642;28;20396;-84
2022/03/08 05:38:47;;;;;;;;;;;;;;;2.38;100.00;99639.94;4999745;28;20020;-83
2022/03/08 05:41:12;;;;;;;;;;;;;;;2.57;100.00;99635.88;5005214;28;20667;-84
2022/03/08 05:43:37;;;;;;;;;;;;;;;2.83;100.00;99638.69;4996247;28;19921;-83
2022/03/08 05:46:03;;;;;;;;;;;;;;;2.60;100.00;99633.38;4987066;28;19967;-85
2022/03/08 05:48:28;;;;;;;;;;;;;;;2.97;100.00;99631.19;4990210;28;19921;-84
2022/03/08 05:50:53;;;;;;;;;;;;;;;3.18;100.00;99633.06;5005867;28;19951;-85
2022/03/08 05:53:19;;;;;;;;;;;;;;;3.15;100.00;99623.72;4988555;28;20773;-85
2022/03/08 05:55:44;;;;;;;;;;;;;;;2.28;100.00;99631.31;5001488;28;19917;-85
2022/03/08 05:58:09;;;;;;;;;;;;;;;2.69;100.00;99633.47;5005872;28;19981;-85
2022/03/08 06:00:34;;;;;;;;;;;;;;;2.33;100.00;99639.00;5005983;28;19918;-86
2022/03/08 06:03:00;;;;;;;;;;;;;;;2.08;100.00;99636.19;5006247;28;19928;-84
2022/03/08 06:05:25;;;;;;;;;;;;;;;1.81;100.00;99650.22;4993602;28;19922;-85
2022/03/08 06:07:50;;;;;;;;;;;;;;;2.99;100.00;99640.56;4990563;28;19972;-87
2022/03/08 06:10:16;;;;;;;;;;;;;;;2.62;100.00;99641.88;5008016;28;19925;-85
2022/03/08 06:12:41;;;;;;;;;;;;;;;2.95;100.00;99643.06;4991863;28;19932;-85
2022/03/08 06:15:07;;;;;;;;;;;;;;;3.30;100.00;99643.34;4997894;28;19918;-87
2022/03/08 06:17:33;;;;;;;;;;;;;;;3.29;100.00;99639.94;5003484;28;20559;-84
2022/03/08 06:19:58;;;;;;;;;;;;;;;3.34;100.00;99640.81;5004688;28;20408;-84
2022/03/08 06:22:23;;;;;;;;;;;;;;;3.19;100.00;99645.78;5004774;28;20036;-87
2022/03/08 06:24:48;;;;;;;;;;;;;;;3.41;100.00;99640.88;5005029;28;19940;-83
2022/03/08 06:27:14;;;;;;;;;;;;;;;3.38;100.00;99640.88;5005439;28;19980;-82
2022/03/08 06:29:39;;;;;;;;;;;;;;;3.36;100.00;99645.94;4992848;28;19932;-82
2022/03/08 06:32:05;;;;;;;;;;;;;;;3.26;100.00;99647.56;5007649;28;20056;-81
2022/03/08 06:34:30;;;;;;;;;;;;;;;3.06;100.00;99644.84;5006648;28;20406;-81
2022/03/08 06:36:55;;;;;;;;;;;;;;;3.37;100.00;99647.63;5005157;28;19917;-81
2022/03/08 06:39:21;;;;;;;;;;;;;;;3.59;100.00;99645.25;5004664;28;20388;-81
2022/03/08 06:41:46;;;;;;;;;;;;;;;3.57;100.00;99640.13;5006626;28;19917;-83
2022/03/08 06:44:11;;;;;;;;;;;;;;;3.84;100.00;99641.16;5009047;28;20347;-83
2022/03/08 06:46:41;;;;;;;;;;;;;;;3.13;100.00;99648.31;5009600;28;19975;-84
2022/03/08 06:49:06;;;;;;;;;;;;;;;2.87;100.00;99656.56;4995827;28;19960;-83
2022/03/08 06:51:31;;;;;;;;;;;;;;;3.27;100.00;99656.06;4991271;28;19967;-83
2022/03/08 06:53:57;;;;;;;;;;;;;;;3.06;100.00;99664.34;5007535;28;19929;-83
2022/03/08 06:56:22;;;;;;;;;;;;;;;3.29;100.00;99657.75;4994177;28;19929;-83
2022/03/08 06:58:47;;;;;;;;;;;;;;;3.49;100.00;99669.78;5006362;28;20300;-84
2022/03/08 07:01:14;;;;;;;;;;;;;;;3.94;100.00;99658.19;5008573;28;20400;-83
2022/03/08 07:03:40;;;;;;;;;;;;;;;3.83;100.00;99654.72;5010216;28;19968;-83
2022/03/08 07:06:05;;;;;;;;;;;;;;;3.50;100.00;99659.59;5007849;28;19958;-84
2022/03/08 07:08:30;;;;;;;;;;;;;;;4.11;100.00;99651.47;5008769;28;19922;-83
2022/03/08 07:10:56;;;;;;;;;;;;;;;4.63;100.00;99649.94;5008285;28;19921;-83
2022/03/08 07:13:22;;;;;;;;;;;;;;;4.46;100.00;99663.50;5009426;28;20004;-86
2022/03/08 07:15:47;;;;;;;;;;;;;;;5.07;100.00;99661.97;5009104;28;19921;-86
2022/03/08 07:18:13;;;;;;;;;;;;;;;5.33;100.00;99662.78;5009139;28;19941;-85
2022/03/08 07:20:38;;;;;;;;;;;;;;;5.61;100.00;99666.19;4974771;28;20492;-84
2022/03/08 07:23:03;;;;;;;;;;;;;;;5.51;100.00;99658.53;5010118;28;19994;-84
2022/03/08 07:25:29;;;;;;;;;;;;;;;6.02;100.00;99665.31;5010527;28;20279;-83
2022/03/08 07:27:55;;;;;;;;;;;;;;;6.24;100.00;99653.28;5010119;28;19926;-84
2022/03/08 07:30:20;;;;;;;;;;;;;;;6.22;100.00;99654.97;4995633;28;19922;-84
2022/03/08 07:32:45;;;;;;;;;;;;;;;6.27;100.00;99658.41;5007520;28;20311;-78
2022/03/08 07:35:11;;;;;;;;;;;;;;;6.51;100.00;99651.47;5008201;28;19918;-79
2022/03/08 07:37:37;;;;;;;;;;;;;;;6.00;100.00;99661.91;5011006;28;19920;-79
2022/03/08 07:40:04;;;;;;;;;;;;;;;6.19;100.00;99655.00;5009951;28;19924;-80
2022/03/08 07:42:30;;;;;;;;;;;;;;;5.60;100.00;99653.41;5011143;28;20025;-80
2022/03/08 07:44:55;;;;;;;;;;;;;;;6.09;100.00;99653.34;5012237;28;19957;-80
2022/03/08 07:47:20;;;;;;;;;;;;;;;6.65;100.00;99643.69;5005970;28;19922;-79
2022/03/08 07:49:46;;;;;;;;;;;;;;;6.16;100.00;99649.91;4988378;28;20017;-80
2022/03/08 07:52:12;;;;;;;;;;;;;;;6.03;100.00;99651.66;5005707;28;20300;-80
2022/03/08 07:54:37;;;;;;;;;;;;;;;6.13;100.00;99655.00;5010523;28;20221;-83
2022/03/08 07:57:02;;;;;;;;;;;;;;;6.29;100.00;99650.69;4999538;28;20256;-85
2022/03/08 07:59:29;;;;;;;;;;;;;;;6.70;100.00;99654.75;4997838;28;19926;-82
2022/03/08 08:01:54;;;;;;;;;;;;;;;6.52;100.00;99654.84;5015719;28;20301;-83
2022/03/08 08:04:19;;;;;;;;;;;;;;;6.53;98.70;99657.41;5015833;28;19925;-84
2022/03/08 08:06:45;;;;;;;;;;;;;;;6.94;99.30;99652.94;5021638;28;19936;-84
2022/03/08 08:09:12;;;;;;;;;;;;;;;6.49;98.82;99653.16;5025819;28;19937;-84
2022/03/08 08:11:37;;;;;;;;;;;;;;;6.30;100.00;99656.69;5026044;28;19929;-83
2022/03/08 08:14:03;;;;;;;;;;;;;;;6.21;100.00;99655.84;5024990;28;20430;-84
2022/03/08 08:16:28;;;;;;;;;;;;;;;6.42;100.00;99656.63;5025569;28;19922;-83
2022/03/08 08:18:53;;;;;;;;;;;;;;;6.49;100.00;99651.47;5021976;28;19925;-85
2022/03/08 08:21:19;;;;;;;;;;;;;;;7.56;100.00;99640.47;5024810;28;19998;-85
2022/03/08 08:23:44;;;;;;;;;;;;;;;7.53;99.79;99647.31;5009750;28;19918;-83
2022/03/08 08:26:09;;;;;;;;;;;;;;;7.15;97.35;99645.06;5024278;28;19925;-84
2022/03/08 08:28:35;;;;;;;;;;;;;;;7.88;94.12;99635.84;5020473;28;20362;-82
2022/03/08 08:31:00;;;;;;;;;;;;;;;8.18;93.56;99631.22;4990325;28;19918;-82
2022/03/08 08:33:25;;;;;;;;;;;;;;;8.03;90.40;99629.72;5004689;28;20009;-83
2022/03/08 08:35:51;;;;;;;;;;;;;;;7.93;93.75;99626.38;5005477;28;20112;-81
2022/03/08 08:38:16;;;;;;;;;;;;;;;7.49;95.99;99635.38;5005436;28;19968;-83
2022/03/08 08:40:41;;;;;;;;;;;;;;;8.71;92.26;99616.88;5001029;28;19957;-82
2022/03/08 08:43:07;;;;;;;;;;;;;;;9.07;89.95;99606.06;5003737;28;19922;-83
2022/03/08 08:45:32;;;;;;;;;;;;;;;9.59;87.02;99608.56;5004667;28;19925;-83
2022/03/08 08:47:58;;;;;;;;;;;;;;;9.20;85.13;99605.81;5005050;28;20286;-81
2022/03/08 08:50:23;;;;;;;;;;;;;;;9.89;83.08;99605.47;5005484;28;19972;-82
2022/03/08 08:52:49;;;;;;;;;;;;;;;8.54;85.96;99608.56;5004835;28;19922;-85
2022/03/08 08:55:14;;;;;;;;;;;;;;;9.06;82.49;99606.94;5003336;28;19957;-83
2022/03/08 08:57:39;;;;;;;;;;;;;;;7.90;86.64;99610.19;5004585;28;19932;-82
2022/03/08 09:00:05;;;;;;;;;;;;;;;9.06;82.34;99601.81;5005128;28;19988;-86
2022/03/08 09:02:31;;;;;;;;;;;;;;;8.41;81.16;99607.03;5003442;28;20352;-81
2022/03/08 09:04:56;;;;;;;;;;;;;;;9.68;77.48;99592.13;5004270;28;19917;-83
2022/03/08 09:07:21;;;;;;;;;;;;;;;10.07;79.06;99597.38;4983916;28;20036;-82
2022/03/08 09:09:49;;;;;;;;;;;;;;;10.02;73.75;99594.06;5002634;28;19968;-83
2022/03/08 09:12:14;;;;;;;;;;;;;;;9.81;73.64;99597.91;4983278;28;19972;-86
2022/03/08 09:14:39;;;;;;;;;;;;;;;9.66;72.49;99587.91;5003449;28;19946;-85
2022/03/08 09:17:05;;;;;;;;;;;;;;;9.25;72.03;99592.06;5004132;28;20008;-82
2022/03/08 09:19:30;;;;;;;;;;;;;;;10.07;71.17;99583.66;4987157;28;20361;-83
2022/03/08 09:21:55;;;;;;;;;;;;;;;9.60;67.78;99584.56;5001347;28;19914;-81
2022/03/08 09:24:20;;;;;;;;;;;;;;;9.96;67.32;99586.44;5002394;28;19918;-83
2022/03/08 09:26:46;;;;;;;;;;;;;;;10.13;64.89;99579.25;5003280;28;20304;-83
2022/03/08 09:29:11;;;;;;;;;;;;;;;10.31;62.53;99583.19;5000624;28;19968;-84
2022/03/08 09:31:36;;;;;;;;;;;;;;;10.17;59.71;99577.44;5000987;28;19918;-85
2022/03/08 09:34:02;;;;;;;;;;;;;;;10.02;61.84;99576.88;5002402;28;19925;-83
2022/03/08 09:36:27;;;;;;;;;;;;;;;10.08;61.71;99572.47;5004350;28;19968;-84
2022/03/08 09:38:52;;;;;;;;;;;;;;;10.17;59.53;99574.84;5002427;28;19922;-85
2022/03/08 09:41:18;;;;;;;;;;;;;;;10.11;60.61;99567.28;5000491;28;20257;-83
2022/03/08 09:43:43;;;;;;;;;;;;;;;11.07;56.77;99564.25;5002944;28;19921;-84
2022/03/08 09:46:08;;;;;;;;;;;;;;;9.81;60.56;99572.19;4998590;28;20019;-85
2022/03/08 09:48:34;;;;;;;;;;;;;;;9.66;60.56;99568.16;5001386;28;20012;-85
2022/03/08 09:51:00;;;;;;;;;;;;;;;10.15;60.85;99566.31;5004470;28;20026;-83
2022/03/08 09:53:25;;;;;;;;;;;;;;;9.62;60.01;99564.81;4999941;28;20114;-84
2022/03/08 09:55:51;;;;;;;;;;;;;;;9.84;63.91;99566.97;5004229;28;20012;-81
2022/03/08 09:58:19;;;;;;;;;;;;;;;9.79;60.42;99568.78;5005787;28;20012;-83
2022/03/08 10:00:44;;;;;;;;;;;;;;;10.52;59.35;99561.25;5006090;28;19917;-82
2022/03/08 10:03:12;;;;;;;;;;;;;;;11.01;59.57;99569.53;5002536;28;19922;-81
2022/03/08 10:05:40;;;;;;;;;;;;;;;10.60;58.46;99573.94;4989863;28;19917;-80
2022/03/08 10:08:19;;;;;;;;;;;;;;;10.54;55.38;99567.22;5000884;28;19981;-82
2022/03/08 10:11:01;;;;;;;;;;;;;;;11.73;55.22;99547.88;5000784;28;19936;-82
2022/03/08 10:13:32;;;;;;;;;;;;;;;10.77;57.64;99558.13;5000503;28;20292;-81
2022/03/08 10:16:06;;;;;;;;;;;;;;;10.34;56.54;99552.22;5001775;28;19920;-84
2022/03/08 10:18:33;;;;;;;;;;;;;;;10.54;55.13;99549.19;4988719;28;20508;-82
2022/03/08 10:20:58;;;;;;;;;;;;;;;10.18;54.35;99546.53;5001480;28;20373;-81
2022/03/08 10:23:23;;;;;;;;;;;;;;;10.96;55.42;99543.88;5001530;28;19925;-80
2022/03/08 10:25:49;;;;;;;;;;;;;;;11.25;57.83;99548.31;5001478;28;19929;-82
2022/03/08 10:28:14;;;;;;;;;;;;;;;10.71;53.99;99540.22;4983873;28;19922;-82
2022/03/08 10:30:42;;;;;;;;;;;;;;;11.12;54.68;99530.63;4998599;28;20309;-82
2022/03/08 10:33:07;;;;;;;;;;;;;;;10.71;54.33;99529.91;4989918;28;20627;-81
2022/03/08 10:35:37;;;;;;;;;;;;;;;10.55;52.89;99524.28;5000543;28;19924;-82
2022/03/08 10:38:04;;;;;;;;;;;;;;;11.13;52.34;99512.56;5000366;28;19917;-82
2022/03/08 10:40:35;;;;;;;;;;;;;;;10.70;52.18;99525.63;5000394;28;20009;-83
2022/03/08 10:43:02;;;;;;;;;;;;;;;10.20;50.13;99513.03;4987674;28;20392;-82
2022/03/08 10:45:28;;;;;;;;;;;;;;;10.87;50.77;99500.31;4999909;28;19918;-82
2022/03/08 10:47:53;;;;;;;;;;;;;;;10.30;50.58;99493.94;5001287;28;19929;-82
2022/03/08 10:50:19;;;;;;;;;;;;;;;10.94;50.22;99486.38;5000521;28;19922;-82
2022/03/08 10:52:46;;;;;;;;;;;;;;;10.99;48.66;99481.97;5001461;28;19921;-83
2022/03/08 10:55:14;;;;;;;;;;;;;;;10.31;50.17;99475.06;4986360;28;20234;-83
2022/03/08 10:57:40;;;;;;;;;;;;;;;10.85;49.94;99479.72;4991590;28;19948;-83
2022/03/08 11:00:09;;;;;;;;;;;;;;;11.62;52.28;99475.09;4990112;28;19918;-83
2022/03/08 11:02:35;;;;;;;;;;;;;;;10.73;48.48;99477.47;5003204;28;19925;-83
2022/03/08 11:05:08;;;;;;;;;;;;;;;11.77;46.79;99460.03;5052461;22;19929;-83
2022/03/08 11:07:34;;;;;;;;;;;;;;;11.67;45.61;99457.72;5031001;28;20017;-82
2022/03/08 11:10:00;;;;;;;;;;;;;;;11.54;48.13;99456.44;5035325;28;19916;-83
2022/03/08 11:12:25;;;;;;;;;;;;;;;10.99;48.66;99463.06;5017923;28;19922;-82
2022/03/08 11:14:50;;;;;;;;;;;;;;;12.19;46.87;99457.94;5039097;28;19912;-82
2022/03/08 11:17:16;;;;;;;;;;;;;;;11.99;45.62;99449.97;5034562;28;20443;-82
2022/03/08 11:19:41;;;;;;;;;;;;;;;12.41;45.98;99450.38;5018037;28;19940;-82
2022/03/08 11:22:06;;;;;;;;;;;;;;;12.08;45.76;99455.69;5023334;28;19966;-82
2022/03/08 11:24:31;;;;;;;;;;;;;;;11.95;44.79;99456.09;5024908;28;19917;-82
2022/03/08 11:26:57;;;;;;;;;;;;;;;11.69;48.33;99460.28;5039399;28;20008;-82
2022/03/08 11:29:22;;;;;;;;;;;;;;;11.73;45.64;99452.41;5040138;28;19921;-83
2022/03/08 11:31:48;;;;;;;;;;;;;;;11.87;45.22;99446.00;5038650;28;19917;-82
2022/03/08 11:34:19;;;;;;;;;;;;;;;12.04;44.61;99454.13;5039403;28;19917;-82
2022/03/08 11:36:47;;;;;;;;;;;;;;;12.74;45.73;99445.81;5051546;28;19920;-82
2022/03/08 11:39:17;;;;;;;;;;;;;;;12.26;43.18;99443.94;5026848;28;19925;-83
2022/03/08 11:41:42;;;;;;;;;;;;;;;12.66;44.94;99437.50;5049968;28;19927;-81
2022/03/08 11:44:18;;;;;;;;;;;;;;;13.15;42.51;99440.09;5024172;28;20370;-82
2022/03/08 11:47:00;;;;;;;;;;;;;;;12.91;43.82;99439.25;5040068;28;20012;-83
2022/03/08 11:49:44;;;;;;;;;;;;;;;12.28;43.00;99437.00;5025202;28;19917;-83
2022/03/08 11:52:14;;;;;;;;;;;;;;;12.77;42.74;99430.22;5041975;28;19937;-83
2022/03/08 11:54:40;;;;;;;;;;;;;;;11.84;44.18;99428.03;5039249;28;19913;-83
2022/03/08 11:57:05;;;;;;;;;;;;;;;11.96;44.07;99432.84;5038323;28;19921;-84
2022/03/08 11:59:30;;;;;;;;;;;;;;;13.10;40.91;99429.09;5023257;28;20337;-81
2022/03/08 12:01:56;;;;;;;;;;;;;;;14.13;41.54;99423.50;5039780;28;19917;-82
2022/03/08 12:04:21;;;;;;;;;;;;;;;12.53;41.49;99426.69;5040094;28;19925;-83
2022/03/08 12:06:49;;;;;;;;;;;;;;;12.69;42.60;99426.19;5020621;28;19924;-81
2022/03/08 12:09:17;;;;;;;;;;;;;;;12.69;43.59;99423.63;5041942;28;19920;-83
2022/03/08 12:11:46;;;;;;;;;;;;;;;12.77;41.24;99416.44;5038165;28;19913;-82
2022/03/08 12:14:12;;;;;;;;;;;;;;;12.45;43.28;99425.25;5042802;28;19917;-83
2022/03/08 12:16:39;;;;;;;;;;;;;;;12.73;44.26;99422.63;5039441;28;19924;-82
2022/03/08 12:19:05;;;;;;;;;;;;;;;13.21;43.43;99411.44;5041431;28;19924;-81
2022/03/08 12:21:31;;;;;;;;;;;;;;;13.21;42.63;99414.03;5043510;28;20103;-81
2022/03/08 12:24:09;;;;;;;;;;;;;;;13.81;41.55;99412.66;5024829;28;19933;-81
2022/03/08 12:26:36;;;;;;;;;;;;;;;13.67;42.09;99414.94;5042729;28;19921;-81
2022/03/08 12:29:15;;;;;;;;;;;;;;;13.52;40.85;99418.09;5043074;28;19920;-81
2022/03/08 12:31:55;;;;;;;;;;;;;;;14.26;41.03;99402.31;5040751;28;20379;-82
2022/03/08 12:34:34;;;;;;;;;;;;;;;13.26;39.81;99381.09;5049361;28;19924;-81
2022/03/08 12:37:03;;;;;;;;;;;;;;;12.89;41.12;99395.34;5037444;28;19913;-81
2022/03/08 12:39:45;;;;;;;;;;;;;;;13.24;42.25;99398.41;5042618;28;19925;-80
2022/03/08 12:42:18;;;;;;;;;;;;;;;13.34;39.14;99392.03;5035576;28;20417;-85